sensor_id;sensor_type;location;lat;lon;timestamp;pressure;altitude;pressure_sealevel;temperature;humidity
16481;BME280;44634;54.110;12.138;2023-09-19T00:01:51;99738.06;;;23.13;100.00
16481;BME280;44634;54.110;12.138;2023-09-19T00:04:20;99767.34;;;23.38;100.00
16481;BME280;44634;54.110;12.138;2023-09-19T00:06:55;99802.59;;;23.31;100.00
16481;BME280;44634;54.110;12.138;2023-09-19T00:09:24;99822.63;;;23.35;100.00
16481;BME280;44634;54.110;12.138;2023-09-19T00:11:56;99872.69;;;22.63;100.00
16481;BME280;44634;54.110;12.138;2023-09-19T00:14:24;99881.16;;;23.06;100.00
16481;BME280;44634;54.110;12.138;2023-09-19T00:16:55;99906.16;;;22.90;100.00
16481;BME280;44634;54.110;12.138;2023-09-19T00:19:24;99916.81;;;22.97;100.00
16481;BME280;44634;54.110;12.138;2023-09-19T00:21:54;99941.19;;;22.78;100.00
16481;BME280;44634;54.110;12.138;2023-09-19T00:24:25;99954.56;;;22.73;100.00
16481;BME280;44634;54.110;12.138;2023-09-19T00:26:56;99937.13;;;22.88;100.00
16481;BME280;44634;54.110;12.138;2023-09-19T00:29:28;99947.66;;;22.77;100.00
16481;BME280;44634;54.110;12.138;2023-09-19T00:31:58;99971.78;;;22.84;100.00
16481;BME280;44634;54.110;12.138;2023-09-19T00:34:27;99964.63;;;22.78;100.00
16481;BME280;44634;54.110;12.138;2023-09-19T00:36:56;99975.78;;;22.58;100.00
16481;BME280;44634;54.110;12.138;2023-09-19T00:39:26;99985.25;;;22.49;100.00
16481;BME280;44634;54.110;12.138;2023-09-19T00:42:06;99980.13;;;22.59;100.00
16481;BME280;44634;54.110;12.138;2023-09-19T00:44:34;99971.56;;;22.62;100.00
16481;BME280;44634;54.110;12.138;2023-09-19T00:47:04;99979.50;;;22.22;100.00
16481;BME280;44634;54.110;12.138;2023-09-19T00:49:33;99993.44;;;22.31;100.00
16481;BME280;44634;54.110;12.138;2023-09-19T00:52:05;99990.16;;;22.40;100.00
16481;BME280;44634;54.110;12.138;2023-09-19T00:54:36;99997.44;;;21.98;100.00
16481;BME280;44634;54.110;12.138;2023-09-19T00:57:06;99961.41;;;21.99;100.00
16481;BME280;44634;54.110;12.138;2023-09-19T00:59:36;99948.19;;;21.67;100.00
16481;BME280;44634;54.110;12.138;2023-09-19T01:02:05;99938.88;;;21.82;100.00
16481;BME280;44634;54.110;12.138;2023-09-19T01:04:44;99914.22;;;21.96;100.00
16481;BME280;44634;54.110;12.138;2023-09-19T01:07:13;99883.88;;;21.78;100.00
16481;BME280;44634;54.110;12.138;2023-09-19T01:09:43;99869.00;;;21.63;100.00
16481;BME280;44634;54.110;12.138;2023-09-19T01:12:20;99847.00;;;21.66;100.00
16481;BME280;44634;54.110;12.138;2023-09-19T01:14:52;99853.00;;;21.80;100.00
16481;BME280;44634;54.110;12.138;2023-09-19T01:17:25;99863.44;;;22.00;100.00
16481;BME280;44634;54.110;12.138;2023-09-19T01:20:03;99863.41;;;21.77;100.00
16481;BME280;44634;54.110;12.138;2023-09-19T01:22:37;99852.25;;;21.50;100.00
16481;BME280;44634;54.110;12.138;2023-09-19T01:25:20;99812.47;;;21.52;100.00
16481;BME280;44634;54.110;12.138;2023-09-19T01:30:43;99811.84;;;21.26;100.00
16481;BME280;44634;54.110;12.138;2023-09-19T01:33:12;99804.38;;;21.40;100.00
16481;BME280;44634;54.110;12.138;2023-09-19T01:35:41;99806.13;;;21.34;100.00
16481;BME280;44634;54.110;12.138;2023-09-19T01:38:14;99809.59;;;21.65;100.00
16481;BME280;44634;54.110;12.138;2023-09-19T01:40:47;99804.81;;;21.25;100.00
16481;BME280;44634;54.110;12.138;2023-09-19T01:43:23;99812.25;;;21.53;100.00
16481;BME280;44634;54.110;12.138;2023-09-19T01:46:17;99804.56;;;20.97;100.00
16481;BME280;44634;54.110;12.138;2023-09-19T01:48:49;99777.28;;;21.00;100.00
16481;BME280;44634;54.110;12.138;2023-09-19T01:51:40;99776.03;;;21.14;100.00
16481;BME280;44634;54.110;12.138;2023-09-19T01:54:14;99768.88;;;20.78;100.00
16481;BME280;44634;54.110;12.138;2023-09-19T01:57:01;99766.44;;;21.18;100.00
16481;BME280;44634;54.110;12.138;2023-09-19T01:59:45;99777.50;;;21.40;100.00
16481;BME280;44634;54.110;12.138;2023-09-19T02:02:27;99757.66;;;21.41;100.00
16481;BME280;44634;54.110;12.138;2023-09-19T02:04:58;99757.22;;;21.14;100.00
16481;BME280;44634;54.110;12.138;2023-09-19T02:07:41;99766.84;;;20.92;100.00
16481;BME280;44634;54.110;12.138;2023-09-19T02:10:31;99748.91;;;21.16;100.00
16481;BME280;44634;54.110;12.138;2023-09-19T02:13:01;99755.50;;;20.60;100.00
16481;BME280;44634;54.110;12.138;2023-09-19T02:15:33;99759.00;;;20.60;100.00
16481;BME280;44634;54.110;12.138;2023-09-19T02:18:14;99745.09;;;20.93;100.00
16481;BME280;44634;54.110;12.138;2023-09-19T02:20:43;99755.84;;;20.63;100.00
16481;BME280;44634;54.110;12.138;2023-09-19T02:23:14;99744.56;;;21.03;100.00
16481;BME280;44634;54.110;12.138;2023-09-19T02:25:52;99754.94;;;20.99;100.00
16481;BME280;44634;54.110;12.138;2023-09-19T02:28:24;99765.94;;;20.98;100.00
16481;BME280;44634;54.110;12.138;2023-09-19T02:30:56;99769.88;;;20.65;100.00
16481;BME280;44634;54.110;12.138;2023-09-19T02:33:27;99749.19;;;20.96;100.00
16481;BME280;44634;54.110;12.138;2023-09-19T02:36:05;99758.88;;;20.97;100.00
16481;BME280;44634;54.110;12.138;2023-09-19T02:38:34;99754.97;;;20.69;100.00
16481;BME280;44634;54.110;12.138;2023-09-19T02:41:03;99762.56;;;20.36;100.00
16481;BME280;44634;54.110;12.138;2023-09-19T02:43:35;99749.75;;;20.56;100.00
16481;BME280;44634;54.110;12.138;2023-09-19T02:46:05;99768.25;;;20.46;100.00
16481;BME280;44634;54.110;12.138;2023-09-19T02:48:50;99769.31;;;20.45;100.00
16481;BME280;44634;54.110;12.138;2023-09-19T02:51:32;99767.47;;;20.39;100.00
16481;BME280;44634;54.110;12.138;2023-09-19T02:54:03;99759.59;;;20.26;100.00
16481;BME280;44634;54.110;12.138;2023-09-19T02:56:33;99757.19;;;20.72;100.00
16481;BME280;44634;54.110;12.138;2023-09-19T02:59:02;99761.25;;;20.45;100.00
16481;BME280;44634;54.110;12.138;2023-09-19T03:01:32;99775.25;;;20.29;100.00
16481;BME280;44634;54.110;12.138;2023-09-19T03:04:03;99774.41;;;20.10;100.00
16481;BME280;44634;54.110;12.138;2023-09-19T03:06:35;99788.69;;;20.29;100.00
16481;BME280;44634;54.110;12.138;2023-09-19T03:09:05;99778.19;;;20.27;100.00
16481;BME280;44634;54.110;12.138;2023-09-19T03:11:40;99777.34;;;20.27;100.00
16481;BME280;44634;54.110;12.138;2023-09-19T03:14:09;99783.38;;;20.04;100.00
16481;BME280;44634;54.110;12.138;2023-09-19T03:16:39;99782.91;;;20.25;100.00
16481;BME280;44634;54.110;12.138;2023-09-19T03:19:20;99807.00;;;19.70;100.00
16481;BME280;44634;54.110;12.138;2023-09-19T03:21:50;99813.91;;;19.84;100.00
16481;BME280;44634;54.110;12.138;2023-09-19T03:24:18;99819.41;;;19.89;100.00
16481;BME280;44634;54.110;12.138;2023-09-19T03:26:47;99812.28;;;19.83;100.00
16481;BME280;44634;54.110;12.138;2023-09-19T03:29:17;99815.56;;;20.04;100.00
16481;BME280;44634;54.110;12.138;2023-09-19T03:31:47;99810.81;;;20.06;100.00
16481;BME280;44634;54.110;12.138;2023-09-19T03:34:16;99818.13;;;19.99;100.00
16481;BME280;44634;54.110;12.138;2023-09-19T03:36:46;99809.31;;;20.10;100.00
16481;BME280;44634;54.110;12.138;2023-09-19T03:39:14;99807.66;;;20.09;100.00
16481;BME280;44634;54.110;12.138;2023-09-19T03:41:43;99825.00;;;19.88;100.00
16481;BME280;44634;54.110;12.138;2023-09-19T03:44:12;99823.78;;;20.09;100.00
16481;BME280;44634;54.110;12.138;2023-09-19T03:46:41;99810.88;;;19.99;100.00
16481;BME280;44634;54.110;12.138;2023-09-19T03:49:10;99822.88;;;19.72;100.00
16481;BME280;44634;54.110;12.138;2023-09-19T03:51:39;99823.41;;;19.80;100.00
16481;BME280;44634;54.110;12.138;2023-09-19T03:54:09;99827.53;;;19.83;100.00
16481;BME280;44634;54.110;12.138;2023-09-19T03:56:42;99827.25;;;19.91;100.00
16481;BME280;44634;54.110;12.138;2023-09-19T03:59:12;99847.50;;;19.30;100.00
16481;BME280;44634;54.110;12.138;2023-09-19T04:01:43;99828.84;;;19.99;100.00
16481;BME280;44634;54.110;12.138;2023-09-19T04:04:13;99831.06;;;19.83;100.00
16481;BME280;44634;54.110;12.138;2023-09-19T04:06:42;99821.94;;;19.59;100.00
16481;BME280;44634;54.110;12.138;2023-09-19T04:09:12;99843.53;;;19.71;100.00
16481;BME280;44634;54.110;12.138;2023-09-19T04:11:41;99822.31;;;19.88;100.00
16481;BME280;44634;54.110;12.138;2023-09-19T04:14:12;99834.78;;;19.82;100.00
16481;BME280;44634;54.110;12.138;2023-09-19T04:16:41;99829.25;;;19.96;100.00
16481;BME280;44634;54.110;12.138;2023-09-19T04:19:12;99832.25;;;19.87;100.00
16481;BME280;44634;54.110;12.138;2023-09-19T04:21:41;99831.19;;;19.88;100.00
16481;BME280;44634;54.110;12.138;2023-09-19T04:24:09;99831.75;;;19.72;100.00
16481;BME280;44634;54.110;12.138;2023-09-19T04:26:43;99845.09;;;19.47;100.00
16481;BME280;44634;54.110;12.138;2023-09-19T04:29:11;99848.66;;;19.41;100.00
16481;BME280;44634;54.110;12.138;2023-09-19T04:31:42;99848.22;;;19.44;100.00
16481;BME280;44634;54.110;12.138;2023-09-19T04:34:12;99848.00;;;19.46;100.00
16481;BME280;44634;54.110;12.138;2023-09-19T04:36:43;99848.47;;;19.36;100.00
16481;BME280;44634;54.110;12.138;2023-09-19T04:39:11;99852.78;;;19.44;100.00
16481;BME280;44634;54.110;12.138;2023-09-19T04:41:40;99862.38;;;19.26;100.00
16481;BME280;44634;54.110;12.138;2023-09-19T04:44:13;99855.44;;;19.44;100.00
16481;BME280;44634;54.110;12.138;2023-09-19T04:46:43;99857.53;;;19.10;100.00
16481;BME280;44634;54.110;12.138;2023-09-19T04:49:13;99851.44;;;19.28;100.00
16481;BME280;44634;54.110;12.138;2023-09-19T04:51:43;99852.78;;;19.37;100.00
16481;BME280;44634;54.110;12.138;2023-09-19T04:54:13;99848.78;;;19.21;100.00
16481;BME280;44634;54.110;12.138;2023-09-19T04:56:46;99879.22;;;18.95;100.00
16481;BME280;44634;54.110;12.138;2023-09-19T04:59:18;99893.28;;;19.22;100.00
16481;BME280;44634;54.110;12.138;2023-09-19T05:01:46;99937.75;;;18.92;100.00
16481;BME280;44634;54.110;12.138;2023-09-19T05:04:16;99930.91;;;19.02;100.00
16481;BME280;44634;54.110;12.138;2023-09-19T05:06:45;99925.38;;;19.36;100.00
16481;BME280;44634;54.110;12.138;2023-09-19T05:09:15;99932.16;;;19.00;100.00
16481;BME280;44634;54.110;12.138;2023-09-19T05:11:46;99912.28;;;19.21;100.00
16481;BME280;44634;54.110;12.138;2023-09-19T05:14:18;99928.88;;;18.98;100.00
16481;BME280;44634;54.110;12.138;2023-09-19T05:16:47;99955.31;;;18.75;100.00
16481;BME280;44634;54.110;12.138;2023-09-19T05:19:22;99972.16;;;18.88;100.00
16481;BME280;44634;54.110;12.138;2023-09-19T05:21:51;99972.56;;;18.98;100.00
16481;BME280;44634;54.110;12.138;2023-09-19T05:24:20;99962.03;;;19.03;100.00
16481;BME280;44634;54.110;12.138;2023-09-19T05:26:50;99945.19;;;19.35;100.00
16481;BME280;44634;54.110;12.138;2023-09-19T05:29:23;99954.16;;;19.15;100.00
16481;BME280;44634;54.110;12.138;2023-09-19T05:31:53;99954.16;;;19.09;100.00
16481;BME280;44634;54.110;12.138;2023-09-19T05:34:21;99951.63;;;19.27;100.00
16481;BME280;44634;54.110;12.138;2023-09-19T05:36:53;99951.34;;;18.97;100.00
16481;BME280;44634;54.110;12.138;2023-09-19T05:39:22;99946.91;;;19.22;100.00
16481;BME280;44634;54.110;12.138;2023-09-19T05:41:50;99945.94;;;19.10;100.00
16481;BME280;44634;54.110;12.138;2023-09-19T05:44:19;99949.19;;;19.19;100.00
16481;BME280;44634;54.110;12.138;2023-09-19T05:47:05;99946.88;;;19.29;100.00
16481;BME280;44634;54.110;12.138;2023-09-19T05:49:35;99946.59;;;19.44;100.00
16481;BME280;44634;54.110;12.138;2023-09-19T05:52:07;99950.38;;;19.29;100.00
16481;BME280;44634;54.110;12.138;2023-09-19T05:54:36;99973.78;;;19.02;100.00
16481;BME280;44634;54.110;12.138;2023-09-19T05:57:05;99980.38;;;19.00;100.00
16481;BME280;44634;54.110;12.138;2023-09-19T05:59:33;99976.84;;;19.13;100.00
16481;BME280;44634;54.110;12.138;2023-09-19T06:02:01;99974.34;;;19.24;100.00
16481;BME280;44634;54.110;12.138;2023-09-19T06:04:33;99975.63;;;19.02;100.00
16481;BME280;44634;54.110;12.138;2023-09-19T06:07:07;99966.47;;;19.29;100.00
16481;BME280;44634;54.110;12.138;2023-09-19T06:09:35;99960.41;;;19.47;100.00
16481;BME280;44634;54.110;12.138;2023-09-19T06:12:06;99967.69;;;19.33;100.00
16481;BME280;44634;54.110;12.138;2023-09-19T06:14:35;99953.50;;;19.26;100.00
16481;BME280;44634;54.110;12.138;2023-09-19T06:17:04;99973.75;;;19.09;100.00
16481;BME280;44634;54.110;12.138;2023-09-19T06:19:35;99966.19;;;19.44;100.00
16481;BME280;44634;54.110;12.138;2023-09-19T06:22:04;99991.69;;;19.15;100.00
16481;BME280;44634;54.110;12.138;2023-09-19T06:24:33;99981.94;;;19.21;100.00
16481;BME280;44634;54.110;12.138;2023-09-19T06:27:02;99993.97;;;19.05;100.00
16481;BME280;44634;54.110;12.138;2023-09-19T06:29:31;100002.78;;;19.25;100.00
16481;BME280;44634;54.110;12.138;2023-09-19T06:32:00;100004.72;;;18.92;100.00
16481;BME280;44634;54.110;12.138;2023-09-19T06:34:30;99996.88;;;18.97;100.00
16481;BME280;44634;54.110;12.138;2023-09-19T06:37:02;100025.72;;;19.01;100.00
16481;BME280;44634;54.110;12.138;2023-09-19T06:39:30;100043.03;;;19.12;100.00
16481;BME280;44634;54.110;12.138;2023-09-19T06:41:59;100044.50;;;19.66;100.00
16481;BME280;44634;54.110;12.138;2023-09-19T06:44:28;100063.25;;;19.66;100.00
16481;BME280;44634;54.110;12.138;2023-09-19T06:46:58;100119.38;;;19.74;100.00
16481;BME280;44634;54.110;12.138;2023-09-19T06:49:27;100153.25;;;19.36;100.00
16481;BME280;44634;54.110;12.138;2023-09-19T06:51:55;100157.84;;;18.82;100.00
16481;BME280;44634;54.110;12.138;2023-09-19T06:54:25;100129.38;;;18.94;100.00
16481;BME280;44634;54.110;12.138;2023-09-19T06:56:57;100140.91;;;19.08;100.00
16481;BME280;44634;54.110;12.138;2023-09-19T06:59:25;100171.63;;;19.06;100.00
16481;BME280;44634;54.110;12.138;2023-09-19T07:01:54;100198.22;;;19.00;100.00
16481;BME280;44634;54.110;12.138;2023-09-19T07:04:26;100207.31;;;18.99;100.00
16481;BME280;44634;54.110;12.138;2023-09-19T07:06:55;100222.97;;;19.22;100.00
16481;BME280;44634;54.110;12.138;2023-09-19T07:09:24;100237.00;;;19.11;100.00
16481;BME280;44634;54.110;12.138;2023-09-19T07:11:54;100280.06;;;19.10;100.00
16481;BME280;44634;54.110;12.138;2023-09-19T07:14:22;100276.72;;;18.94;100.00
16481;BME280;44634;54.110;12.138;2023-09-19T07:16:51;100293.28;;;19.38;100.00
16481;BME280;44634;54.110;12.138;2023-09-19T07:19:18;100312.28;;;19.76;100.00
16481;BME280;44634;54.110;12.138;2023-09-19T07:21:47;100332.06;;;19.95;100.00
16481;BME280;44634;54.110;12.138;2023-09-19T07:24:16;100344.50;;;19.69;100.00
16481;BME280;44634;54.110;12.138;2023-09-19T07:26:46;100348.63;;;19.72;100.00
16481;BME280;44634;54.110;12.138;2023-09-19T07:29:16;100389.91;;;19.97;100.00
16481;BME280;44634;54.110;12.138;2023-09-19T07:31:44;100377.88;;;19.53;100.00
16481;BME280;44634;54.110;12.138;2023-09-19T07:34:14;100375.00;;;20.28;100.00
16481;BME280;44634;54.110;12.138;2023-09-19T07:36:42;100422.06;;;20.10;100.00
16481;BME280;44634;54.110;12.138;2023-09-19T07:39:10;100432.81;;;19.84;100.00
16481;BME280;44634;54.110;12.138;2023-09-19T07:41:50;100441.84;;;19.63;100.00
16481;BME280;44634;54.110;12.138;2023-09-19T07:44:18;100472.13;;;19.50;100.00
16481;BME280;44634;54.110;12.138;2023-09-19T07:46:46;100462.94;;;19.73;100.00
16481;BME280;44634;54.110;12.138;2023-09-19T07:49:17;100468.34;;;20.19;100.00
16481;BME280;44634;54.110;12.138;2023-09-19T07:51:45;100479.25;;;19.84;100.00
16481;BME280;44634;54.110;12.138;2023-09-19T07:54:14;100478.25;;;20.71;100.00
16481;BME280;44634;54.110;12.138;2023-09-19T07:56:43;100492.41;;;19.59;100.00
16481;BME280;44634;54.110;12.138;2023-09-19T07:59:13;100464.81;;;19.92;100.00
16481;BME280;44634;54.110;12.138;2023-09-19T08:01:42;100492.47;;;19.92;100.00
16481;BME280;44634;54.110;12.138;2023-09-19T08:04:11;100491.06;;;20.63;100.00
16481;BME280;44634;54.110;12.138;2023-09-19T08:06:39;100504.06;;;20.72;100.00
16481;BME280;44634;54.110;12.138;2023-09-19T08:09:07;100499.75;;;20.58;100.00
16481;BME280;44634;54.110;12.138;2023-09-19T08:11:37;100492.25;;;19.87;100.00
16481;BME280;44634;54.110;12.138;2023-09-19T08:14:05;100497.84;;;20.78;100.00
16481;BME280;44634;54.110;12.138;2023-09-19T08:16:36;100538.38;;;20.50;100.00
16481;BME280;44634;54.110;12.138;2023-09-19T08:19:05;100486.03;;;19.74;100.00
16481;BME280;44634;54.110;12.138;2023-09-19T08:21:32;100527.16;;;20.07;100.00
16481;BME280;44634;54.110;12.138;2023-09-19T08:24:02;100518.28;;;19.94;100.00
16481;BME280;44634;54.110;12.138;2023-09-19T08:26:31;100529.69;;;20.68;100.00
16481;BME280;44634;54.110;12.138;2023-09-19T08:29:00;100515.00;;;20.18;100.00
16481;BME280;44634;54.110;12.138;2023-09-19T08:31:32;100514.41;;;20.62;100.00
16481;BME280;44634;54.110;12.138;2023-09-19T08:34:01;100525.97;;;20.30;100.00
16481;BME280;44634;54.110;12.138;2023-09-19T08:36:29;100517.91;;;20.76;100.00
16481;BME280;44634;54.110;12.138;2023-09-19T08:38:58;100525.78;;;20.58;100.00
16481;BME280;44634;54.110;12.138;2023-09-19T08:41:26;100523.88;;;20.38;100.00
16481;BME280;44634;54.110;12.138;2023-09-19T08:43:54;100521.41;;;20.37;100.00
16481;BME280;44634;54.110;12.138;2023-09-19T08:46:22;100577.78;;;20.37;100.00
16481;BME280;44634;54.110;12.138;2023-09-19T08:48:54;100565.19;;;20.37;100.00
16481;BME280;44634;54.110;12.138;2023-09-19T08:51:27;100547.84;;;20.20;100.00
16481;BME280;44634;54.110;12.138;2023-09-19T08:54:02;100540.97;;;21.17;100.00
16481;BME280;44634;54.110;12.138;2023-09-19T08:56:31;100561.06;;;20.15;100.00
16481;BME280;44634;54.110;12.138;2023-09-19T08:59:02;100529.47;;;20.30;100.00
16481;BME280;44634;54.110;12.138;2023-09-19T09:01:31;100534.41;;;20.00;100.00
16481;BME280;44634;54.110;12.138;2023-09-19T09:03:59;100530.69;;;20.80;100.00
16481;BME280;44634;54.110;12.138;2023-09-19T09:06:30;100555.53;;;20.43;100.00
16481;BME280;44634;54.110;12.138;2023-09-19T09:08:59;100531.72;;;20.20;100.00
16481;BME280;44634;54.110;12.138;2023-09-19T09:11:28;100544.59;;;20.58;100.00
16481;BME280;44634;54.110;12.138;2023-09-19T09:13:56;100543.50;;;20.32;100.00
16481;BME280;44634;54.110;12.138;2023-09-19T09:16:24;100557.78;;;20.33;100.00
16481;BME280;44634;54.110;12.138;2023-09-19T09:18:53;100568.97;;;20.43;100.00
16481;BME280;44634;54.110;12.138;2023-09-19T09:21:21;100533.34;;;21.14;100.00
16481;BME280;44634;54.110;12.138;2023-09-19T09:23:51;100537.16;;;20.60;100.00
16481;BME280;44634;54.110;12.138;2023-09-19T09:26:30;100561.91;;;21.01;100.00
16481;BME280;44634;54.110;12.138;2023-09-19T09:29:08;100546.84;;;20.54;100.00
16481;BME280;44634;54.110;12.138;2023-09-19T09:31:36;100533.81;;;20.64;100.00
16481;BME280;44634;54.110;12.138;2023-09-19T09:34:04;100549.75;;;20.72;100.00
16481;BME280;44634;54.110;12.138;2023-09-19T09:36:34;100542.31;;;20.61;100.00
16481;BME280;44634;54.110;12.138;2023-09-19T09:39:04;100537.72;;;20.15;100.00
16481;BME280;44634;54.110;12.138;2023-09-19T09:41:44;100572.59;;;20.09;100.00
16481;BME280;44634;54.110;12.138;2023-09-19T09:44:12;100553.03;;;20.74;100.00
16481;BME280;44634;54.110;12.138;2023-09-19T09:46:42;100555.94;;;20.46;100.00
16481;BME280;44634;54.110;12.138;2023-09-19T09:49:41;100541.47;;;20.87;100.00
16481;BME280;44634;54.110;12.138;2023-09-19T09:52:21;100550.53;;;20.20;100.00
16481;BME280;44634;54.110;12.138;2023-09-19T09:55:02;100553.84;;;20.68;100.00
16481;BME280;44634;54.110;12.138;2023-09-19T09:57:32;100534.84;;;20.30;100.00
16481;BME280;44634;54.110;12.138;2023-09-19T10:00:00;100546.81;;;20.14;100.00
16481;BME280;44634;54.110;12.138;2023-09-19T10:02:42;100539.28;;;19.77;100.00
16481;BME280;44634;54.110;12.138;2023-09-19T10:05:14;100530.09;;;20.32;100.00
16481;BME280;44634;54.110;12.138;2023-09-19T10:07:48;100541.63;;;20.19;100.00
16481;BME280;44634;54.110;12.138;2023-09-19T10:13:12;100565.63;;;20.28;100.00
16481;BME280;44634;54.110;12.138;2023-09-19T10:15:42;100569.53;;;20.12;100.00
16481;BME280;44634;54.110;12.138;2023-09-19T10:18:12;100573.13;;;19.78;100.00
16481;BME280;44634;54.110;12.138;2023-09-19T10:20:44;100574.47;;;20.21;100.00
16481;BME280;44634;54.110;12.138;2023-09-19T10:23:12;100606.69;;;20.15;100.00
16481;BME280;44634;54.110;12.138;2023-09-19T10:25:41;100595.97;;;20.28;100.00
16481;BME280;44634;54.110;12.138;2023-09-19T10:28:10;100635.94;;;20.71;100.00
16481;BME280;44634;54.110;12.138;2023-09-19T10:30:42;100627.66;;;20.66;100.00
16481;BME280;44634;54.110;12.138;2023-09-19T10:33:12;100603.28;;;20.87;100.00
16481;BME280;44634;54.110;12.138;2023-09-19T10:35:42;100639.41;;;21.11;100.00
16481;BME280;44634;54.110;12.138;2023-09-19T10:38:11;100591.41;;;21.34;100.00
16481;BME280;44634;54.110;12.138;2023-09-19T10:40:42;100618.53;;;21.20;100.00
16481;BME280;44634;54.110;12.138;2023-09-19T10:43:12;100609.25;;;21.29;100.00
16481;BME280;44634;54.110;12.138;2023-09-19T10:45:42;100605.09;;;20.93;100.00
16481;BME280;44634;54.110;12.138;2023-09-19T10:48:11;100596.22;;;20.93;100.00
16481;BME280;44634;54.110;12.138;2023-09-19T10:50:41;100592.88;;;21.10;100.00
16481;BME280;44634;54.110;12.138;2023-09-19T10:53:11;100616.69;;;20.67;100.00
16481;BME280;44634;54.110;12.138;2023-09-19T10:55:39;100610.50;;;20.67;100.00
16481;BME280;44634;54.110;12.138;2023-09-19T10:58:07;100604.25;;;20.40;100.00
16481;BME280;44634;54.110;12.138;2023-09-19T11:00:55;100590.44;;;20.89;100.00
16481;BME280;44634;54.110;12.138;2023-09-19T11:03:23;100625.16;;;21.04;100.00
16481;BME280;44634;54.110;12.138;2023-09-19T11:06:00;100626.59;;;21.26;100.00
16481;BME280;44634;54.110;12.138;2023-09-19T11:08:36;100614.22;;;20.99;100.00
16481;BME280;44634;54.110;12.138;2023-09-19T11:14:14;100629.69;;;21.17;100.00
16481;BME280;44634;54.110;12.138;2023-09-19T11:19:34;100649.75;;;22.43;100.00
16481;BME280;44634;54.110;12.138;2023-09-19T11:22:23;100662.59;;;21.25;100.00
16481;BME280;44634;54.110;12.138;2023-09-19T11:24:53;100635.47;;;21.47;100.00
16481;BME280;44634;54.110;12.138;2023-09-19T11:27:30;100614.56;;;21.93;100.00
16481;BME280;44634;54.110;12.138;2023-09-19T11:36:02;100652.69;;;22.35;100.00
16481;BME280;44634;54.110;12.138;2023-09-19T11:46:53;100656.09;;;21.66;100.00
16481;BME280;44634;54.110;12.138;2023-09-19T11:49:25;100640.25;;;22.66;100.00
16481;BME280;44634;54.110;12.138;2023-09-19T11:52:00;100694.22;;;22.21;100.00
16481;BME280;44634;54.110;12.138;2023-09-19T11:54:31;100662.09;;;22.58;100.00
16481;BME280;44634;54.110;12.138;2023-09-19T11:56:59;100657.88;;;22.37;100.00
16481;BME280;44634;54.110;12.138;2023-09-19T11:59:28;100656.16;;;23.24;100.00
16481;BME280;44634;54.110;12.138;2023-09-19T12:01:56;100660.28;;;22.76;100.00
16481;BME280;44634;54.110;12.138;2023-09-19T12:04:33;100629.03;;;23.00;100.00
16481;BME280;44634;54.110;12.138;2023-09-19T12:07:06;100649.31;;;22.46;100.00
16481;BME280;44634;54.110;12.138;2023-09-19T12:09:40;100641.88;;;21.97;100.00
16481;BME280;44634;54.110;12.138;2023-09-19T12:12:10;100662.28;;;22.24;100.00
16481;BME280;44634;54.110;12.138;2023-09-19T12:14:43;100641.56;;;22.88;100.00
16481;BME280;44634;54.110;12.138;2023-09-19T12:17:15;100640.94;;;22.54;100.00
16481;BME280;44634;54.110;12.138;2023-09-19T12:19:49;100635.38;;;22.81;100.00
16481;BME280;44634;54.110;12.138;2023-09-19T12:22:19;100651.72;;;22.30;100.00
16481;BME280;44634;54.110;12.138;2023-09-19T12:24:47;100641.81;;;22.87;100.00
16481;BME280;44634;54.110;12.138;2023-09-19T12:27:17;100677.38;;;22.64;100.00
16481;BME280;44634;54.110;12.138;2023-09-19T12:29:46;100660.50;;;21.98;100.00
16481;BME280;44634;54.110;12.138;2023-09-19T12:32:15;100662.41;;;23.24;100.00
16481;BME280;44634;54.110;12.138;2023-09-19T12:34:52;100644.75;;;23.03;100.00
16481;BME280;44634;54.110;12.138;2023-09-19T12:37:23;100661.53;;;22.49;100.00
16481;BME280;44634;54.110;12.138;2023-09-19T12:40:03;100656.91;;;22.56;100.00
16481;BME280;44634;54.110;12.138;2023-09-19T12:42:41;100654.56;;;22.66;100.00
16481;BME280;44634;54.110;12.138;2023-09-19T12:45:11;100645.28;;;22.62;100.00
16481;BME280;44634;54.110;12.138;2023-09-19T12:47:40;100651.72;;;22.23;100.00
16481;BME280;44634;54.110;12.138;2023-09-19T12:50:10;100638.94;;;22.12;100.00
16481;BME280;44634;54.110;12.138;2023-09-19T12:52:45;100634.53;;;22.80;100.00
16481;BME280;44634;54.110;12.138;2023-09-19T12:55:20;100628.75;;;22.20;100.00
16481;BME280;44634;54.110;12.138;2023-09-19T12:57:55;100640.75;;;22.24;100.00
16481;BME280;44634;54.110;12.138;2023-09-19T13:00:31;100635.03;;;21.56;100.00
16481;BME280;44634;54.110;12.138;2023-09-19T13:03:17;100633.69;;;22.23;100.00
16481;BME280;44634;54.110;12.138;2023-09-19T13:05:49;100628.53;;;22.22;100.00
16481;BME280;44634;54.110;12.138;2023-09-19T13:08:20;100630.50;;;21.95;100.00
16481;BME280;44634;54.110;12.138;2023-09-19T13:11:03;100629.88;;;22.06;100.00
16481;BME280;44634;54.110;12.138;2023-09-19T13:13:33;100637.97;;;21.22;100.00
16481;BME280;44634;54.110;12.138;2023-09-19T13:16:03;100632.91;;;21.72;100.00
16481;BME280;44634;54.110;12.138;2023-09-19T13:18:47;100636.94;;;21.43;100.00
16481;BME280;44634;54.110;12.138;2023-09-19T13:21:20;100668.84;;;21.84;100.00
16481;BME280;44634;54.110;12.138;2023-09-19T13:23:56;100625.59;;;22.30;100.00